createdAt,value
2018-08-17T00:00:29.600Z,888.87
2018-08-17T00:01:29.584Z,888.88
2018-08-17T00:02:29.576Z,888.89
2018-08-17T00:03:29.569Z,888.91
2018-08-17T00:04:29.563Z,888.89
2018-08-17T00:05:29.557Z,888.88
2018-08-17T00:06:29.553Z,888.87
2018-08-17T00:07:29.545Z,888.87
2018-08-17T00:08:29.533Z,888.90
2018-08-17T00:09:29.531Z,888.91
2018-08-17T00:10:29.517Z,888.90
2018-08-17T00:11:29.516Z,888.89
2018-08-17T00:12:29.502Z,888.93
2018-08-17T00:13:29.499Z,888.94
2018-08-17T00:14:29.492Z,888.93
2018-08-17T00:15:29.484Z,888.89
2018-08-17T00:16:29.474Z,888.89
2018-08-17T00:17:29.466Z,888.94
2018-08-17T00:18:29.468Z,888.86
2018-08-17T00:19:29.458Z,888.88
2018-08-17T00:20:29.445Z,888.88
2018-08-17T00:21:29.440Z,888.89
2018-08-17T00:22:29.431Z,888.88
2018-08-17T00:23:29.423Z,888.87
2018-08-17T00:24:29.419Z,888.92
2018-08-17T00:25:29.410Z,888.89
2018-08-17T00:26:29.397Z,888.88
2018-08-17T00:27:29.394Z,888.88
2018-08-17T00:28:29.382Z,888.85
2018-08-17T00:29:29.378Z,888.86
2018-08-17T00:30:29.376Z,888.85
2018-08-17T00:31:29.364Z,888.82
2018-08-17T00:32:29.352Z,888.81
2018-08-17T00:33:29.345Z,888.82
2018-08-17T00:34:29.342Z,888.83
2018-08-17T00:35:29.337Z,888.85
2018-08-17T00:36:29.326Z,888.80
2018-08-17T00:37:29.317Z,888.79
2018-08-17T00:38:29.313Z,888.78
2018-08-17T00:39:29.306Z,888.77
2018-08-17T00:40:29.295Z,888.78
2018-08-17T00:41:29.289Z,888.76
2018-08-17T00:42:29.288Z,888.75
2018-08-17T00:43:29.273Z,888.75
2018-08-17T00:44:29.260Z,888.73
2018-08-17T00:45:29.258Z,888.71
2018-08-17T00:46:29.270Z,888.73
2018-08-17T00:47:29.241Z,888.72
2018-08-17T00:48:29.236Z,888.75
2018-08-17T00:49:29.229Z,888.69
2018-08-17T00:50:29.266Z,888.69
2018-08-17T00:51:29.213Z,888.71
2018-08-17T00:52:29.207Z,888.69
2018-08-17T00:53:29.195Z,888.69
2018-08-17T00:54:29.200Z,888.65
2018-08-17T00:55:29.185Z,888.70
2018-08-17T00:56:29.176Z,888.72
2018-08-17T00:57:29.169Z,888.69
2018-08-17T00:58:29.166Z,888.69
2018-08-17T00:59:29.148Z,888.66
2018-08-17T01:00:29.140Z,888.67
2018-08-17T01:01:29.133Z,888.67
2018-08-17T01:02:29.126Z,888.68
2018-08-17T01:03:29.123Z,888.67
2018-08-17T01:04:29.114Z,888.74
2018-08-17T01:05:29.106Z,888.70
2018-08-17T01:06:29.100Z,888.68
2018-08-17T01:07:29.093Z,888.72
2018-08-17T01:08:29.084Z,888.70
2018-08-17T01:09:29.073Z,888.67
2018-08-17T01:10:29.065Z,888.72
2018-08-17T01:11:29.059Z,888.70
2018-08-17T01:12:29.056Z,888.78
2018-08-17T01:13:29.049Z,888.73
2018-08-17T01:14:29.039Z,888.71
2018-08-17T01:15:29.032Z,888.74
2018-08-17T01:16:29.020Z,888.78
2018-08-17T01:17:29.010Z,888.76
2018-08-17T01:18:29.011Z,888.75
2018-08-17T01:19:28.996Z,888.76
2018-08-17T01:20:28.991Z,888.77
2018-08-17T01:21:28.981Z,888.79
2018-08-17T01:22:28.973Z,888.78
2018-08-17T01:23:28.968Z,888.82
2018-08-17T01:24:28.963Z,888.81
2018-08-17T01:25:28.954Z,888.79
2018-08-17T01:26:28.947Z,888.79
2018-08-17T01:27:28.939Z,888.79
2018-08-17T01:28:28.932Z,888.80
2018-08-17T01:29:28.918Z,888.79
2018-08-17T01:30:28.912Z,888.81
2018-08-17T01:31:28.907Z,888.80
2018-08-17T01:32:28.895Z,888.81
2018-08-17T01:33:28.889Z,888.83
2018-08-17T01:34:28.881Z,888.82
2018-08-17T01:35:28.877Z,888.82
2018-08-17T01:36:28.872Z,888.83
2018-08-17T01:37:28.865Z,888.80
2018-08-17T01:38:28.856Z,888.81
2018-08-17T01:39:28.840Z,888.82
2018-08-17T01:40:28.832Z,888.80
2018-08-17T01:41:28.830Z,888.82
2018-08-17T01:42:28.822Z,888.81
2018-08-17T01:43:28.808Z,888.79
2018-08-17T01:44:28.806Z,888.84
2018-08-17T01:45:28.799Z,888.82
2018-08-17T01:46:28.794Z,888.82
2018-08-17T01:47:28.783Z,888.82
2018-08-17T01:48:28.775Z,888.80
2018-08-17T01:49:28.763Z,888.83
2018-08-17T01:50:28.759Z,888.77
2018-08-17T01:51:28.750Z,888.77
2018-08-17T01:52:28.743Z,888.79
2018-08-17T01:53:28.734Z,888.79
2018-08-17T01:54:28.730Z,888.80
2018-08-17T01:55:28.718Z,888.80
2018-08-17T01:56:28.709Z,888.82
2018-08-17T01:57:28.705Z,888.83
2018-08-17T01:58:28.701Z,888.82
2018-08-17T01:59:28.683Z,888.83
2018-08-17T02:00:28.677Z,888.82
2018-08-17T02:01:28.668Z,888.80
2018-08-17T02:02:28.657Z,888.78
2018-08-17T02:03:28.655Z,888.79
2018-08-17T02:04:28.644Z,888.80
2018-08-17T02:05:28.636Z,888.79
2018-08-17T02:06:28.632Z,888.78
2018-08-17T02:07:28.618Z,888.80
2018-08-17T02:08:28.612Z,888.80
2018-08-17T02:09:28.606Z,888.79
2018-08-17T02:10:28.596Z,888.77
2018-08-17T02:11:28.587Z,888.79
2018-08-17T02:12:28.587Z,888.79
2018-08-17T02:13:28.577Z,888.78
2018-08-17T02:14:28.577Z,888.80
2018-08-17T02:15:28.561Z,888.74
2018-08-17T02:16:28.555Z,888.77
2018-08-17T02:17:28.539Z,888.77
2018-08-17T02:18:28.537Z,888.77
2018-08-17T02:19:28.522Z,888.79
2018-08-17T02:20:28.518Z,888.79
2018-08-17T02:21:28.510Z,888.80
2018-08-17T02:22:28.504Z,888.80
2018-08-17T02:23:28.497Z,888.84
2018-08-17T02:24:28.620Z,888.85
2018-08-17T02:25:28.477Z,888.80
2018-08-17T02:26:28.475Z,888.82
2018-08-17T02:27:28.466Z,888.83
2018-08-17T02:28:28.450Z,888.83
2018-08-17T02:29:28.458Z,888.84
2018-08-17T02:30:28.441Z,888.90
2018-08-17T02:31:28.428Z,888.81
2018-08-17T02:32:28.423Z,888.84
2018-08-17T02:33:28.412Z,888.84
2018-08-17T02:34:28.405Z,888.85
2018-08-17T02:35:28.402Z,888.86
2018-08-17T02:36:28.388Z,888.85
2018-08-17T02:37:28.387Z,888.83
2018-08-17T02:38:28.372Z,888.81
2018-08-17T02:39:28.369Z,888.80
2018-08-17T02:40:28.355Z,888.77
2018-08-17T02:41:28.352Z,888.80
2018-08-17T02:42:28.342Z,888.73
2018-08-17T02:43:28.330Z,888.76
2018-08-17T02:44:28.322Z,888.74
2018-08-17T02:45:28.318Z,888.73
2018-08-17T02:46:28.307Z,888.72
2018-08-17T02:47:28.302Z,888.67
2018-08-17T02:48:28.295Z,888.68
2018-08-17T02:49:28.284Z,888.63
2018-08-17T02:50:28.278Z,888.65
2018-08-17T02:51:28.268Z,888.63
2018-08-17T02:52:28.265Z,888.67
2018-08-17T02:53:28.252Z,888.60
2018-08-17T02:54:28.249Z,888.62
2018-08-17T02:55:28.238Z,888.62
2018-08-17T02:56:28.228Z,888.59
2018-08-17T02:57:28.220Z,888.58
2018-08-17T02:58:28.209Z,888.56
2018-08-17T02:59:28.262Z,888.55
2018-08-17T03:00:28.198Z,888.54
2018-08-17T03:01:28.199Z,888.54
2018-08-17T03:02:28.179Z,888.53
2018-08-17T03:03:28.182Z,888.54
2018-08-17T03:04:28.162Z,888.55
2018-08-17T03:05:28.159Z,888.57
2018-08-17T03:06:28.154Z,888.59
2018-08-17T03:07:28.137Z,888.61
2018-08-17T03:08:28.133Z,888.61
2018-08-17T03:09:28.128Z,888.62
2018-08-17T03:10:28.117Z,888.60
2018-08-17T03:11:28.104Z,888.62
2018-08-17T03:12:28.098Z,888.62
2018-08-17T03:13:28.093Z,888.64
2018-08-17T03:14:28.091Z,888.64
2018-08-17T03:15:28.077Z,888.62
2018-08-17T03:16:28.067Z,888.64
2018-08-17T03:17:28.059Z,888.58
2018-08-17T03:18:28.054Z,888.62
2018-08-17T03:19:28.044Z,888.63
2018-08-17T03:20:28.035Z,888.61
2018-08-17T03:21:28.030Z,888.64
2018-08-17T03:22:28.012Z,888.62
2018-08-17T03:23:28.006Z,888.66
2018-08-17T03:24:28.001Z,888.63
2018-08-17T03:25:27.993Z,888.64
2018-08-17T03:26:27.980Z,888.64
2018-08-17T03:27:27.970Z,888.63
2018-08-17T03:28:27.967Z,888.65
2018-08-17T03:29:27.956Z,888.64
2018-08-17T03:30:27.950Z,888.65
2018-08-17T03:31:27.943Z,888.65
2018-08-17T03:32:27.933Z,888.67
2018-08-17T03:33:27.924Z,888.65
2018-08-17T03:34:27.913Z,888.64
2018-08-17T03:35:27.912Z,888.66
2018-08-17T03:36:27.898Z,888.63
2018-08-17T03:37:27.895Z,888.64
2018-08-17T03:38:27.886Z,888.63
2018-08-17T03:39:27.877Z,888.66
2018-08-17T03:40:27.911Z,888.67
2018-08-17T03:41:27.850Z,888.66
2018-08-17T03:42:27.848Z,888.66
2018-08-17T03:43:27.835Z,888.71
2018-08-17T03:44:27.830Z,888.69
2018-08-17T03:45:27.828Z,888.72
2018-08-17T03:46:27.818Z,888.74
2018-08-17T03:47:27.806Z,888.75
2018-08-17T03:48:27.795Z,888.79
2018-08-17T03:49:27.789Z,888.78
2018-08-17T03:50:27.778Z,888.79
2018-08-17T03:51:27.773Z,888.79
2018-08-17T03:52:27.764Z,888.80
2018-08-17T03:53:27.754Z,888.79
2018-08-17T03:54:27.745Z,888.79
2018-08-17T03:55:27.738Z,888.78
2018-08-17T03:56:27.724Z,888.77
2018-08-17T03:57:27.722Z,888.77
2018-08-17T03:58:27.714Z,888.78
2018-08-17T03:59:27.702Z,888.76
2018-08-17T04:00:27.694Z,888.78
2018-08-17T04:01:27.717Z,888.80
2018-08-17T04:02:27.680Z,888.83
2018-08-17T04:03:27.676Z,888.83
2018-08-17T04:04:27.658Z,888.85
2018-08-17T04:05:27.663Z,888.89
2018-08-17T04:06:27.647Z,888.85
2018-08-17T04:07:27.637Z,888.85
2018-08-17T04:08:27.627Z,888.86
2018-08-17T04:09:27.627Z,888.89
2018-08-17T04:10:27.609Z,888.90
2018-08-17T04:11:27.601Z,888.93
2018-08-17T04:12:27.601Z,888.94
2018-08-17T04:13:27.586Z,888.91
2018-08-17T04:14:27.574Z,888.94
2018-08-17T04:15:27.589Z,888.92
2018-08-17T04:16:27.562Z,888.95
2018-08-17T04:17:27.546Z,888.92
2018-08-17T04:18:27.540Z,888.93
2018-08-17T04:19:27.535Z,888.96
2018-08-17T04:20:27.525Z,888.97
2018-08-17T04:21:27.519Z,889.02
2018-08-17T04:22:27.509Z,888.99
2018-08-17T04:23:27.502Z,889.01
2018-08-17T04:24:27.488Z,889.02
2018-08-17T04:25:27.484Z,888.97
2018-08-17T04:26:27.475Z,889.03
2018-08-17T04:27:27.469Z,889.00
2018-08-17T04:28:27.457Z,889.04
2018-08-17T04:29:27.449Z,889.04
2018-08-17T04:30:27.443Z,889.02
2018-08-17T04:31:27.440Z,889.09
2018-08-17T04:32:27.422Z,889.05
2018-08-17T04:33:27.421Z,889.02
2018-08-17T04:34:27.410Z,889.02
2018-08-17T04:35:30.114Z,889.02
2018-08-17T04:36:27.393Z,889.05
2018-08-17T04:37:27.380Z,889.06
2018-08-17T04:38:27.376Z,889.06
2018-08-17T04:39:27.369Z,889.03
2018-08-17T04:40:27.358Z,889.08
2018-08-17T04:41:27.346Z,889.07
2018-08-17T04:42:27.347Z,889.14
2018-08-17T04:43:27.337Z,889.15
2018-08-17T04:44:27.324Z,889.17
2018-08-17T04:45:27.321Z,889.19
2018-08-17T04:46:27.308Z,889.21
2018-08-17T04:47:27.302Z,889.22
2018-08-17T04:48:27.291Z,889.24
2018-08-17T04:49:27.287Z,889.22
2018-08-17T04:50:27.275Z,889.26
2018-08-17T04:51:27.262Z,889.27
2018-08-17T04:52:27.249Z,889.27
2018-08-17T04:53:27.247Z,889.25
2018-08-17T04:54:27.236Z,889.25
2018-08-17T04:55:27.231Z,889.26
2018-08-17T04:56:27.221Z,889.30
2018-08-17T04:57:27.213Z,889.31
2018-08-17T04:58:27.207Z,889.30
2018-08-17T04:59:27.197Z,889.33
2018-08-17T05:00:27.189Z,889.32
2018-08-17T05:01:27.175Z,889.32
2018-08-17T05:02:27.173Z,889.31
2018-08-17T05:03:27.182Z,889.31
2018-08-17T05:04:27.150Z,889.32
2018-08-17T05:05:27.142Z,889.29
2018-08-17T05:06:27.134Z,889.33
2018-08-17T05:07:27.133Z,889.34
2018-08-17T05:08:27.119Z,889.33
2018-08-17T05:09:27.111Z,889.33
2018-08-17T05:10:27.105Z,889.37
2018-08-17T05:11:27.099Z,889.34
2018-08-17T05:12:27.081Z,889.33
2018-08-17T05:13:27.075Z,889.28
2018-08-17T05:14:27.069Z,889.31
2018-08-17T05:15:27.060Z,889.31
2018-08-17T05:16:27.048Z,889.34
2018-08-17T05:17:27.044Z,889.32
2018-08-17T05:18:27.036Z,889.34
2018-08-17T05:19:27.023Z,889.30
2018-08-17T05:20:27.019Z,889.33
2018-08-17T05:21:27.041Z,889.31
2018-08-17T05:22:26.999Z,889.32
2018-08-17T05:23:27.058Z,889.31
2018-08-17T05:24:26.983Z,889.33
2018-08-17T05:25:26.978Z,889.29
2018-08-17T05:26:26.968Z,889.29
2018-08-17T05:27:26.955Z,889.29
2018-08-17T05:28:26.954Z,889.25
2018-08-17T05:29:26.941Z,889.27
2018-08-17T05:30:26.926Z,889.29
2018-08-17T05:31:26.925Z,889.26
2018-08-17T05:32:26.914Z,889.27
2018-08-17T05:33:26.907Z,889.28
2018-08-17T05:34:26.903Z,889.29
2018-08-17T05:35:26.890Z,889.27
2018-08-17T05:36:26.888Z,889.34
2018-08-17T05:37:26.871Z,889.33
2018-08-17T05:38:26.864Z,889.32
2018-08-17T05:39:26.849Z,889.33
2018-08-17T05:40:26.849Z,889.30
2018-08-17T05:41:26.833Z,889.34
2018-08-17T05:42:26.827Z,889.36
2018-08-17T05:43:26.819Z,889.34
2018-08-17T05:44:26.813Z,889.35
2018-08-17T05:45:26.809Z,889.31
2018-08-17T05:46:26.791Z,889.32
2018-08-17T05:47:26.805Z,889.30
2018-08-17T05:48:26.779Z,889.33
2018-08-17T05:49:26.776Z,889.29
2018-08-17T05:50:26.763Z,889.32
2018-08-17T05:51:26.759Z,889.28
2018-08-17T05:52:26.746Z,889.29
2018-08-17T05:53:26.735Z,889.32
2018-08-17T05:54:26.731Z,889.31
2018-08-17T05:55:26.761Z,889.30
2018-08-17T05:56:26.712Z,889.33
2018-08-17T05:57:26.705Z,889.33
2018-08-17T05:58:26.691Z,889.28
2018-08-17T05:59:26.696Z,889.35
2018-08-17T06:00:26.673Z,889.32
2018-08-17T06:01:26.686Z,889.34
2018-08-17T06:02:26.657Z,889.36
2018-08-17T06:03:26.652Z,889.36
2018-08-17T06:04:26.646Z,889.36
2018-08-17T06:05:26.636Z,889.36
2018-08-17T06:06:26.628Z,889.35
2018-08-17T06:07:26.622Z,889.35
2018-08-17T06:08:26.606Z,889.38
2018-08-17T06:09:26.600Z,889.35
2018-08-17T06:10:26.592Z,889.37
2018-08-17T06:11:26.700Z,889.39
2018-08-17T06:12:26.573Z,889.38
2018-08-17T06:13:26.567Z,889.36
2018-08-17T06:14:26.558Z,889.39
2018-08-17T06:15:26.549Z,889.37
2018-08-17T06:16:26.541Z,889.36
2018-08-17T06:17:26.533Z,889.37
2018-08-17T06:18:26.526Z,889.37
2018-08-17T06:19:26.514Z,889.31
2018-08-17T06:20:26.506Z,889.30
2018-08-17T06:21:26.500Z,889.33
2018-08-17T06:22:26.492Z,889.31
2018-08-17T06:23:26.482Z,889.33
2018-08-17T06:24:26.472Z,889.32
2018-08-17T06:25:26.465Z,889.36
2018-08-17T06:26:26.461Z,889.37
2018-08-17T06:27:26.451Z,889.41
2018-08-17T06:28:26.440Z,889.41
2018-08-17T06:29:26.431Z,889.39
2018-08-17T06:30:26.431Z,889.38
2018-08-17T06:31:26.426Z,889.40
2018-08-17T06:32:26.406Z,889.38
2018-08-17T06:33:26.394Z,889.43
2018-08-17T06:34:26.393Z,889.42
2018-08-17T06:35:26.389Z,889.43
2018-08-17T06:36:26.369Z,889.45
2018-08-17T06:37:26.440Z,889.45
2018-08-17T06:38:26.358Z,889.45
2018-08-17T06:39:26.350Z,889.41
2018-08-17T06:40:26.346Z,889.43
2018-08-17T06:41:26.369Z,889.40
2018-08-17T06:42:26.323Z,889.39
2018-08-17T06:43:26.321Z,889.43
2018-08-17T06:44:26.313Z,889.39
2018-08-17T06:45:26.301Z,889.40
2018-08-17T06:46:26.297Z,889.37
2018-08-17T06:47:26.293Z,889.38
2018-08-17T06:48:26.279Z,889.39
2018-08-17T06:49:26.269Z,889.39
2018-08-17T06:50:26.261Z,889.37
2018-08-17T06:51:26.254Z,889.37
2018-08-17T06:52:26.244Z,889.34
2018-08-17T06:53:26.239Z,889.33
2018-08-17T06:54:26.230Z,889.33
2018-08-17T06:55:26.223Z,889.35
2018-08-17T06:56:26.221Z,889.37
2018-08-17T06:57:26.206Z,889.35
2018-08-17T06:58:26.200Z,889.34
2018-08-17T06:59:26.199Z,889.34
2018-08-17T07:00:26.191Z,889.37
2018-08-17T07:01:26.179Z,889.35
2018-08-17T07:02:27.190Z,889.34
2018-08-17T07:03:26.163Z,889.32
2018-08-17T07:04:26.159Z,889.36
2018-08-17T07:05:26.145Z,889.33
2018-08-17T07:06:26.140Z,889.29
2018-08-17T07:07:26.148Z,889.31
2018-08-17T07:08:26.125Z,889.30
2018-08-17T07:09:26.182Z,889.28
2018-08-17T07:10:26.114Z,889.27
2018-08-17T07:11:26.107Z,889.26
2018-08-17T07:12:26.096Z,889.24
2018-08-17T07:13:26.092Z,889.26
2018-08-17T07:14:26.091Z,889.28
2018-08-17T07:15:26.070Z,889.30
2018-08-17T07:16:26.063Z,889.30
2018-08-17T07:17:26.054Z,889.29
2018-08-17T07:18:26.050Z,889.31
2018-08-17T07:19:26.043Z,889.29
2018-08-17T07:20:26.034Z,889.28
2018-08-17T07:21:26.031Z,889.24
2018-08-17T07:22:26.024Z,889.26
2018-08-17T07:23:26.017Z,889.25
2018-08-17T07:24:25.997Z,889.24
2018-08-17T07:25:25.997Z,889.24
2018-08-17T07:26:25.992Z,889.24
2018-08-17T07:27:25.984Z,889.21
2018-08-17T07:28:25.976Z,889.21
2018-08-17T07:29:25.967Z,889.20
2018-08-17T07:30:25.962Z,889.22
2018-08-17T07:31:25.952Z,889.19
2018-08-17T07:32:25.940Z,889.20
2018-08-17T07:33:25.936Z,889.22
2018-08-17T07:34:25.930Z,889.19
2018-08-17T07:35:25.924Z,889.22
2018-08-17T07:36:25.914Z,889.18
2018-08-17T07:37:26.510Z,889.26
2018-08-17T07:38:25.908Z,889.22
2018-08-17T07:39:25.899Z,889.23
2018-08-17T07:40:25.883Z,889.31
2018-08-17T07:41:25.879Z,889.27
2018-08-17T07:42:25.872Z,889.33
2018-08-17T07:43:25.866Z,889.28
2018-08-17T07:44:25.862Z,889.28
2018-08-17T07:45:25.852Z,889.26
2018-08-17T07:46:25.850Z,889.28
2018-08-17T07:47:25.837Z,889.28
2018-08-17T07:48:25.834Z,889.25
2018-08-17T07:49:25.824Z,889.21
2018-08-17T07:50:25.820Z,889.25
2018-08-17T07:51:25.807Z,889.24
2018-08-17T07:52:25.801Z,889.24
2018-08-17T07:53:25.800Z,889.28
2018-08-17T07:54:25.791Z,889.25
2018-08-17T07:55:25.787Z,889.24
2018-08-17T07:56:25.773Z,889.28
2018-08-17T07:57:25.771Z,889.27
2018-08-17T07:58:25.764Z,889.26
2018-08-17T07:59:25.759Z,889.28
2018-08-17T08:00:25.758Z,889.27
2018-08-17T08:01:25.744Z,889.26
2018-08-17T08:02:25.734Z,889.27
2018-08-17T08:03:25.736Z,889.29
2018-08-17T08:04:25.724Z,889.29
2018-08-17T08:05:25.722Z,889.28
2018-08-17T08:06:25.719Z,889.27
2018-08-17T08:07:25.705Z,889.29
2018-08-17T08:08:25.703Z,889.31
2018-08-17T08:09:25.692Z,889.33
2018-08-17T08:10:25.687Z,889.32
2018-08-17T08:11:25.679Z,889.34
2018-08-17T08:12:25.675Z,889.36
2018-08-17T08:13:25.668Z,889.38
2018-08-17T08:14:25.660Z,889.37
2018-08-17T08:15:25.659Z,889.33
2018-08-17T08:16:25.645Z,889.33
2018-08-17T08:17:25.645Z,889.33
2018-08-17T08:18:25.639Z,889.35
2018-08-17T08:19:25.630Z,889.33
2018-08-17T08:20:25.772Z,889.34
2018-08-17T08:21:25.621Z,889.32
2018-08-17T08:22:25.616Z,889.37
2018-08-17T08:23:25.606Z,889.35
2018-08-17T08:24:25.605Z,889.38
2018-08-17T08:25:25.594Z,889.41
2018-08-17T08:26:25.590Z,889.39
2018-08-17T08:27:25.588Z,889.42
2018-08-17T08:28:25.580Z,889.43
2018-08-17T08:29:25.567Z,889.39
2018-08-17T08:30:25.561Z,889.39
2018-08-17T08:31:25.553Z,889.41
2018-08-17T08:32:25.602Z,889.41
2018-08-17T08:33:25.544Z,889.38
2018-08-17T08:34:25.540Z,889.43
2018-08-17T08:35:25.536Z,889.40
2018-08-17T08:36:25.529Z,889.42
2018-08-17T08:37:25.522Z,889.35
2018-08-17T08:38:25.520Z,889.36
2018-08-17T08:39:25.516Z,889.37
2018-08-17T08:40:25.506Z,889.40
2018-08-17T08:41:25.506Z,889.38
2018-08-17T08:42:25.498Z,889.41
2018-08-17T08:43:25.485Z,889.39
2018-08-17T08:44:25.479Z,889.33
2018-08-17T08:45:25.482Z,889.37
2018-08-17T08:46:25.471Z,889.42
2018-08-17T08:47:25.467Z,889.41
2018-08-17T08:48:25.479Z,889.41
2018-08-17T08:49:25.455Z,889.36
2018-08-17T08:50:25.449Z,889.35
2018-08-17T08:51:25.444Z,889.35
2018-08-17T08:52:25.435Z,889.35
2018-08-17T08:53:25.434Z,889.36
2018-08-17T08:54:25.432Z,889.37
2018-08-17T08:55:25.424Z,889.37
2018-08-17T08:56:25.418Z,889.35
2018-08-17T08:57:25.407Z,889.34
2018-08-17T08:58:25.410Z,889.35
2018-08-17T08:59:25.395Z,889.36
2018-08-17T09:00:25.390Z,889.34
2018-08-17T09:01:25.389Z,889.36
2018-08-17T09:02:25.379Z,889.42
2018-08-17T09:03:25.378Z,889.37
2018-08-17T09:04:25.366Z,889.39
2018-08-17T09:05:25.363Z,889.39
2018-08-17T09:06:25.356Z,889.40
2018-08-17T09:07:25.355Z,889.38
2018-08-17T09:08:25.345Z,889.41
2018-08-17T09:09:25.341Z,889.38
2018-08-17T09:10:25.332Z,889.38
2018-08-17T09:11:25.330Z,889.38
2018-08-17T09:12:25.326Z,889.35
2018-08-17T09:13:25.320Z,889.36
2018-08-17T09:14:25.312Z,889.34
2018-08-17T09:15:25.307Z,889.29
2018-08-17T09:16:25.299Z,889.30
2018-08-17T09:17:25.293Z,889.30
2018-08-17T09:18:25.294Z,889.32
2018-08-17T09:19:25.293Z,889.34
2018-08-17T09:20:25.356Z,889.36
2018-08-17T09:21:25.270Z,889.32
2018-08-17T09:22:25.268Z,889.34
2018-08-17T09:23:25.260Z,889.33
2018-08-17T09:24:25.281Z,889.32
2018-08-17T09:25:25.249Z,889.29
2018-08-17T09:26:25.246Z,889.23
2018-08-17T09:27:25.242Z,889.26
2018-08-17T09:28:25.237Z,889.24
2018-08-17T09:29:25.227Z,889.22
2018-08-17T09:30:25.221Z,889.23
2018-08-17T09:31:25.216Z,889.28
2018-08-17T09:32:25.217Z,889.26
2018-08-17T09:33:25.202Z,889.27
2018-08-17T09:34:25.204Z,889.25
2018-08-17T09:35:25.196Z,889.21
2018-08-17T09:36:25.187Z,889.24
2018-08-17T09:37:25.185Z,889.21
2018-08-17T09:38:25.187Z,889.22
2018-08-17T09:39:25.167Z,889.21
2018-08-17T09:40:25.166Z,889.21
2018-08-17T09:41:25.154Z,889.17
2018-08-17T09:42:25.155Z,889.21
2018-08-17T09:43:25.144Z,889.21
2018-08-17T09:44:25.156Z,889.21
2018-08-17T09:45:25.138Z,889.18
2018-08-17T09:46:25.125Z,889.17
2018-08-17T09:47:25.130Z,889.20
2018-08-17T09:48:25.125Z,889.17
2018-08-17T09:49:25.116Z,889.20
2018-08-17T09:50:25.112Z,889.17
2018-08-17T09:51:25.201Z,889.19
2018-08-17T09:52:25.099Z,889.20
2018-08-17T09:53:25.095Z,889.20
2018-08-17T09:54:25.092Z,889.21
2018-08-17T09:55:25.084Z,889.21
2018-08-17T09:56:25.092Z,889.20
2018-08-17T09:57:25.119Z,889.23
2018-08-17T09:58:25.079Z,889.23
2018-08-17T09:59:25.067Z,889.21
2018-08-17T10:00:25.064Z,889.22
2018-08-17T10:01:25.052Z,889.24
2018-08-17T10:02:25.044Z,889.23
2018-08-17T10:03:25.043Z,889.24
2018-08-17T10:04:25.037Z,889.19
2018-08-17T10:05:25.031Z,889.20
2018-08-17T10:06:25.035Z,889.19
2018-08-17T10:07:25.023Z,889.18
2018-08-17T10:08:25.022Z,889.19
2018-08-17T10:09:25.013Z,889.16
2018-08-17T10:10:25.009Z,889.12
2018-08-17T10:11:25.004Z,889.09
2018-08-17T10:12:25.000Z,889.13
2018-08-17T10:13:24.996Z,889.16
2018-08-17T10:14:24.990Z,889.14
2018-08-17T10:15:24.982Z,889.15
2018-08-17T10:16:24.983Z,889.12
2018-08-17T10:17:24.979Z,889.14
2018-08-17T10:18:24.974Z,889.12
2018-08-17T10:19:24.968Z,889.14
2018-08-17T10:20:24.959Z,889.13
2018-08-17T10:21:25.136Z,889.13
2018-08-17T10:22:24.950Z,889.10
2018-08-17T10:23:24.943Z,889.10
2018-08-17T10:24:24.938Z,889.09
2018-08-17T10:25:24.935Z,889.08
2018-08-17T10:26:24.936Z,889.08
2018-08-17T10:27:24.927Z,889.02
2018-08-17T10:28:24.918Z,889.05
2018-08-17T10:29:24.914Z,889.02
2018-08-17T10:30:24.916Z,889.06
2018-08-17T10:31:24.906Z,889.00
2018-08-17T10:32:24.902Z,889.00
2018-08-17T10:33:24.896Z,888.99
2018-08-17T10:34:24.892Z,888.99
2018-08-17T10:35:24.887Z,889.00
2018-08-17T10:36:24.881Z,888.99
2018-08-17T10:37:24.879Z,888.97
2018-08-17T10:38:24.875Z,888.99
2018-08-17T10:39:24.873Z,888.95
2018-08-17T10:40:24.865Z,889.00
2018-08-17T10:41:24.864Z,889.00
2018-08-17T10:42:24.859Z,888.96
2018-08-17T10:43:24.851Z,888.97
2018-08-17T10:44:24.845Z,888.92
2018-08-17T10:45:24.843Z,888.93
2018-08-17T10:46:24.840Z,888.93
2018-08-17T10:47:24.832Z,888.91
2018-08-17T10:48:24.832Z,888.92
2018-08-17T10:49:24.826Z,888.91
2018-08-17T10:50:24.821Z,888.86
2018-08-17T10:51:24.820Z,888.92
2018-08-17T10:52:24.815Z,888.93
2018-08-17T10:53:24.805Z,888.89
2018-08-17T10:54:24.807Z,888.88
2018-08-17T10:55:24.831Z,888.88
2018-08-17T10:56:24.794Z,888.87
2018-08-17T10:57:24.814Z,888.90
2018-08-17T10:58:24.789Z,888.86
2018-08-17T10:59:24.783Z,888.88
2018-08-17T11:00:24.779Z,888.87
2018-08-17T11:01:24.773Z,888.87
2018-08-17T11:02:24.771Z,888.89
2018-08-17T11:03:24.770Z,888.86
2018-08-17T11:04:24.761Z,888.87
2018-08-17T11:05:24.760Z,888.86
2018-08-17T11:06:24.753Z,888.87
2018-08-17T11:07:24.749Z,888.87
2018-08-17T11:08:24.744Z,888.88
2018-08-17T11:09:24.747Z,888.81
2018-08-17T11:10:24.737Z,888.84
2018-08-17T11:11:24.738Z,888.89
2018-08-17T11:12:24.730Z,888.87
2018-08-17T11:13:24.731Z,888.84
2018-08-17T11:14:24.731Z,888.82
2018-08-17T11:15:24.717Z,888.80
2018-08-17T11:16:24.713Z,888.77
2018-08-17T11:17:24.710Z,888.76
2018-08-17T11:18:24.703Z,888.78
2018-08-17T11:19:24.703Z,888.75
2018-08-17T11:20:24.697Z,888.74
2018-08-17T11:21:24.697Z,888.75
2018-08-17T11:22:24.689Z,888.73
2018-08-17T11:23:24.684Z,888.76
2018-08-17T11:24:24.686Z,888.74
2018-08-17T11:25:24.674Z,888.71
2018-08-17T11:26:24.677Z,888.72
2018-08-17T11:27:24.669Z,888.74
2018-08-17T11:28:24.660Z,888.74
2018-08-17T11:29:24.663Z,888.67
2018-08-17T11:30:24.661Z,888.70
2018-08-17T11:31:24.652Z,888.68
2018-08-17T11:32:24.654Z,888.66
2018-08-17T11:33:24.652Z,888.67
2018-08-17T11:34:24.737Z,888.66
2018-08-17T11:35:24.640Z,888.64
2018-08-17T11:36:24.643Z,888.65
2018-08-17T11:37:24.639Z,888.62
2018-08-17T11:38:24.628Z,888.60
2018-08-17T11:39:24.627Z,888.56
2018-08-17T11:40:24.621Z,888.55
2018-08-17T11:41:24.655Z,888.54
2018-08-17T11:42:24.617Z,888.54
2018-08-17T11:43:24.611Z,888.55
2018-08-17T11:44:24.608Z,888.53
2018-08-17T11:45:24.597Z,888.52
2018-08-17T11:46:24.597Z,888.51
2018-08-17T11:47:24.593Z,888.50
2018-08-17T11:48:24.601Z,888.39
2018-08-17T11:49:24.596Z,888.44
2018-08-17T11:50:24.586Z,888.47
2018-08-17T11:51:24.584Z,888.49
2018-08-17T11:52:24.580Z,888.45
2018-08-17T11:53:24.582Z,888.48
2018-08-17T11:54:24.572Z,888.51
2018-08-17T11:55:24.567Z,888.47
2018-08-17T11:56:24.563Z,888.45
2018-08-17T11:57:24.565Z,888.46
2018-08-17T11:58:24.565Z,888.48
2018-08-17T11:59:24.560Z,888.49
2018-08-17T12:00:24.559Z,888.42
2018-08-17T12:01:24.550Z,888.43
2018-08-17T12:02:24.552Z,888.41
2018-08-17T12:03:24.541Z,888.41
2018-08-17T12:04:24.542Z,888.37
2018-08-17T12:05:24.539Z,888.38
2018-08-17T12:06:24.531Z,888.42
2018-08-17T12:07:24.536Z,888.38
2018-08-17T12:08:24.579Z,888.41
2018-08-17T12:09:24.523Z,888.41
2018-08-17T12:10:24.523Z,888.42
2018-08-17T12:11:24.523Z,888.44
2018-08-17T12:12:24.515Z,888.42
2018-08-17T12:13:24.506Z,888.39
2018-08-17T12:14:24.512Z,888.42
2018-08-17T12:15:24.508Z,888.40
2018-08-17T12:16:24.498Z,888.44
2018-08-17T12:17:24.500Z,888.44
2018-08-17T12:18:24.496Z,888.44
2018-08-17T12:19:24.496Z,888.46
2018-08-17T12:20:24.495Z,888.44
2018-08-17T12:21:24.485Z,888.43
2018-08-17T12:22:24.486Z,888.44
2018-08-17T12:23:24.483Z,888.37
2018-08-17T12:24:24.560Z,888.39
2018-08-17T12:25:24.480Z,888.38
2018-08-17T12:26:24.473Z,888.37
2018-08-17T12:27:24.471Z,888.39
2018-08-17T12:28:24.464Z,888.37